Maribor, Slovenia

12:43 AM CEST on May 23, 2015 (GMT +0200)
Maribor | | Change Station
CLOSE
Current Station
Airport
Location: Maribor,
Elevation: 869 ft
Nearby Weather Stations

Elev 869 ft 46.48 °N, 15.68 °E | Updated 13 minutes ago

Heavy Rain
Heavy Rain
50 °F
Feels Like 50 °F
N
12
Wind Variable Wind from North

Today
High -- | Low -- °F
--% Chance of Precip.
Yesterday
High -- | Low -- °F
Precip. -- in
5:15 AM 8:33 PM
Waxing Crescent, 24% visible
Pressure 29.95 in
Visibility 3.1 miles
Clouds Mostly Cloudy 2100 ft
Dew Point 48 °F
Humidity 94%
Rainfall 0.00 in
Snow Depth Not available.
UV 0 out of 12
Pollen Not available.
Air Quality Not available.
Flu Activity Not available.
METAR LJMB 222230Z AUTO 36010KT 320V040 5000 +RA BKN021/// 10/09 Q1014

More Conditions Fewer Conditions

Pressure 29.95 in
Visibility 3.1 miles
Clouds Mostly Cloudy 2100 ft
Dew Point 48 °F
Humidity 94%
Rainfall 0.00 in
Snow Depth Not available.
UV 0 out of 12
Pollen Not available.
Air Quality Not available.
Flu Activity Not available.
METAR LJMB 222230Z AUTO 36010KT 320V040 5000 +RA BKN021/// 10/09 Q1014

More Conditions Fewer Conditions

10-Day Weather Forecast

Almanac

Astronomy

May. 23, 2015 Rise Set
Actual Time
Civil Twilight
Nautical Twilight
Astronomical Twilight
Moon
Length of Visible Light
Length of Day
Tomorrow will be .
, % of the Moon is Illuminated

Today's Extremes

Country Highs Country Lows

Community

WunderPhotos

Upload Photos

1,823,323 photos uploaded!

WunderBlogs® & News

Nearby

Air Quality

  Air Quality AQ Index Pollutant
Not available.

Snow Depth

Station Depth Elevation

Earthquake Activity

City Distance Mag. Time & Date
Minimum magnitude displayed is 2.5.

Coastal Water Temperatures

Place Temperature

Stations

Nearby Weather Stations

Station Location Temp. Windchill Dew Point Humidity Wind Precip. Elev Updated Type